Espace membre
Imprimable
Challenges > Delhalle - Meslin l'Eveque, 16/09/2007, BEL - La Ronde des Tortues Meslinoises
Liste des rapports > Delhalle - 30km - Classement scratch
Recherche: Page: [1]
107 Entrées
 
Les réclamations ne sont plus acceptées, les résultats sont considérés comme définitifs.
RangNrNomAgeIOCLigueEquipeRéelTempsTkmMoy.ScrPtsLocalité
1.388HERBET Henri45BELSPAJOGGPLUS1:50:231:50:263:41 16.3071050SART LEZ SPA
2.180GILBERT 2 Michel 240BELUACBOUFFIOL1:53:531:53:563:48 15.80101008MARCINELLE
3.1171HANUS Michel49BELUACDILAVILE1:58:551:58:583:58 15.1314950ROSELIES
4.6HUYGHE Vincent44BELMOHATPVERT2:00:162:00:204:01 14.9616934JEMAPPES
5.2289SANCHEZ POSADA Luis47BELCACE2:03:162:03:194:07 14.6026892RHODE-SAINT-GENÈSE
6.507CRESPINET Alain44BELRCBRCB2:06:202:06:234:13 14.2432855ROSIERES
7.2290VAN MOLLE Philippe47BELFURALOPERS2:06:522:07:024:15 14.1734848
8.1631CADO Paul47BELFLEUCLARA2:09:192:09:254:19 13.9139818LIGNY
9.774FOHAL J.Luc42BELET CHIEVRES2:09:342:09:504:20 13.8641813ATH
10.1953BINKERT Marc46BELLDLV2:10:202:10:254:21 13.8043804GANSHOREN
11.1370LEWILLION Philippe41BELFER2:10:252:10:304:21 13.7944802FRAMERIES
12.2002BRUCCOLERI Paolo48BELRTC SPRIMONT2:10:342:10:414:22 13.7745799NEUPRE
13.2292DE BOEVERE Patrick42BELAV WIELING2:11:122:11:254:23 13.7048790
14.2227GOSSART Serge41BELFER2:11:232:11:284:23 13.6949787FRAMERIES
15.2003ROELANDTS Olivier46BELRCB2:11:212:11:454:24 13.6650786BRUXELLES
16.2251QUINIOU Thierry41BEL2:12:052:12:134:25 13.6152777ETTERBEEK
17.1814DE CRAEMER Geert40BEL2:12:182:12:224:25 13.6053774BRUGGE
18.1172DIEPENDAELE Rudi44BELACLOTOTAL2:12:452:12:514:26 13.5555767LA HESTRE
19.2032VAN OSSELT Thierry40BELBIN-OTAN2:13:002:13:104:27 13.5256764BRUXELLES
20.2323MARTORANA Antonio42ITA2:13:152:13:214:27 13.5057761LAHESTRE
21.1204BLACHERE Eric42BELAMAY2:14:382:14:444:30 13.3662742HUY
22.553VANDAM Jean44BELANTILOB2:15:112:15:184:31 13.3067732COURT SAINT ETIENNE
23.2218CAPRON Jean-Philippe42BEL2:15:522:16:184:33 13.2170722
24.2297VAN KEYMEULEN Danny44BELSPIAALST2:16:192:16:234:33 13.2072716HAALTERT
25.2298SCHOCKAERT Hedwig47BELSPIRIDON AALST2:16:212:16:324:34 13.1874713HOFSTADE-AALST
26.2253BOERO Roberto44BEL2:17:342:17:414:36 13.0780695
27.1818HUBERT Roger49BELSPTWAVRE2:18:092:18:134:37 13.0281689MARIAKERKE
28.837CEUPPENS Paul46BELHAMURABI2:17:502:18:174:37 13.0282690LINT
29.205RASSART Patrick49BELACLO2:18:282:18:364:38 12.9983684MORLANWELZ
30.1991SPLINGARD Dominique47BELACLO2:18:292:18:364:38 12.9984682HAINE-ST-PIERRE
31.2266VAN DEN BROEKE Patrick49BELTITAN2:18:242:18:404:38 12.9885682BEERSEL
32.2263DANNAU Leo47BELHALLE2:18:422:18:584:38 12.9586678LEMBEEK
33.2036AENDEKERK Wilfried46BEL2:19:222:19:334:40 12.9090668MALLE
34.2267BLONDIAU Philippe41BELCPMV2:19:282:19:484:40 12.8892665
35.2011DURITA Janika43BELJ.E.T.J.E.T.2:20:282:20:314:42 12.8194653ENGHIEN
36.2226TAHIR Gil45BELCPMV2:20:352:20:544:42 12.7895651GERPINNES
37.623PISCART Pierre47BELONHOXY20002:20:522:21:044:43 12.7696647MONS
38.811GIGOT Jacques40BELCEPAL2:20:462:21:104:43 12.7597647BRUXELLES
39.2308MARTINACHE Gauthier40BELRCB2:21:212:21:304:43 12.7299640BRUSSEL 17
40.592VAUDOISEY Pascal45BELRCB2:23:122:23:374:48 12.53108614BRUXELLES
41.2262GILSON Didier46BEL2:23:312:23:514:48 12.51109610
42.2039MOUTIER Bernard46BELTORTUES2:24:382:24:504:50 12.43112597
43.1529LOMBART Frederic40BELOCAN2:25:082:25:204:51 12.39113591GEMBLOUX
44.1643SMETS Johan41BEL2:25:152:25:284:51 12.37114589LUBBEEK
45.404TILBURGS Frank40BELAVN2:25:532:26:144:53 12.31120577MEER
46.2038VOLON Patrick48BELFACFLEMALLE2:26:102:26:224:53 12.30122572FLÉMALLE-HAUTE
47.2309ROMBAUX Didier49BELBJB2:26:112:26:264:53 12.29124570
48.1339FAFCHAMPS Eudore47BELRFCL2:26:232:26:354:54 12.28126566VOTTEM
49.372DEQUINNEMAERE Philippe40BELBIN-OTAN2:27:402:27:474:56 12.18134546
50.2261JAMART Eric49BELTITAN2:27:332:27:494:56 12.18135546BIERGES
51.1307HARMEGNIES Michel46BELTRI GTSPIBOR2:27:482:28:054:57 12.16136543HORNU
52.2215BUFFET Yannick41BEL2:27:412:28:104:57 12.15138542PERUWELZ
53.1229HOUSSIER Didier42BEL2:28:072:28:144:57 12.14139537VILVOORDE
54.498HEYNDRICKX Jan45BELKAPUCIJN2:28:372:28:534:58 12.09141530BERTEM
55.2221LAASMAN Michel40BEL2:28:462:29:144:59 12.06144526BAISY-THY
56.2235STEINIER Thierry45BELJ.C.HAM-SUR-HEURE2:29:092:29:234:59 12.05145521JUMET
57.2005FOBE Jean-Jacques41BELENJAMBEE WOLUWE2:29:392:29:495:00 12.01149513KRAAINEM
58.2013MARIËN Wim40BELAXA TEAM2:30:272:30:485:02 11.94152503LENNIK
59.2037ABRAHAM Michel41BEL2:30:492:30:525:02 11.93153499CASTEAU
60.2252VANMAELE Didier42BEL2:30:552:31:045:03 11.92154497ZAVENTEM
61.2273PIRSON Marc49BELETE2:32:432:32:575:06 11.77157479SINT-PIETERS-KAPELLE (VL.
62.2307DEVEN Marcel46BELBJB2:33:422:34:015:09 11.69161466MAURAGE
63.2214CASSIERS Jean-Michel44BEL2:34:092:34:245:09 11.66163460WATERLOO
64.1344AGNELLI David40BELFAC2:35:402:35:535:12 11.55170440FLEMALLE
65.2300DÔME Marc41BELTRIATHLON2:35:562:36:135:13 11.52172436ATH
66.2301OTS Yves49BELLIEKERK JOGGING2:36:212:36:415:14 11.49173431NINOVE
67.2009DAME Jean-Marie47BELTORTUES2:37:002:37:245:15 11.44176423SILLY
68.2033STATSYNS J.-Francois40BEL2:37:032:37:265:15 11.43178420COURT-ST-ETIENNE
69.2315D'ADAMO Pino47BELJC BAUDOUR2:37:242:38:005:16 11.39181414BAUDOUR
70.353VALCKX Geert44BELKAPUCIJN2:38:112:38:295:17 11.36185404BERTEM
71.2202DELMELLE Patrick42BELRCB2:40:112:40:395:22 11.20192380BRUXELLES
72.2304AVAU Benoit49BEL2:40:452:40:555:22 11.19193375
73.2225ROYEN Bernard41BELTRIATH2:40:402:40:575:22 11.18194374ATH
74.547BOVY Marc47BELSPA2:40:432:41:005:22 11.18196371CRISNEE
75.2305COOMANS Alain44BELRCB2:40:512:41:185:23 11.16198368BRUXELLES
76.2282STROOBANT Eric46BELACG2:41:142:41:315:24 11.14200363
77.2035T'KINT Peter45BELACG2:41:132:41:325:24 11.14201362GALMAARDEN
77.2281VANDER TRAPPEN Jo48BELACG2:41:142:41:325:24 11.14201362GERAARDSBERGEN
79.1436DUVIVIER Philippe44BELTORTUES2:41:112:41:385:24 11.14203360ARBRE
80.482THIJS Chris41BELKAPUCIJN2:41:272:41:445:24 11.13204356TERVUREN
81.2025SABLON Roland42BELAXA TEAM2:42:162:42:415:26 11.06208346VOSSEM
82.154DEHON Michel48BELACLO2:42:422:43:055:27 11.04211339LA LOUVIERE
83.2249LUYS Jean-Marc43BEL2:42:522:43:195:27 11.02215333BRAINE-LE-COMTE
84.377SPRIMONT Olivier44BEL2:42:552:43:335:28 11.01217331UCCLE
85.2321BOURGI Patrick40BELBASE 3 SYSTEMS2:43:252:43:585:28 10.98219325ANVAING
86.2287KENTANE Hadewig46BELAGG2:43:552:44:145:29 10.96220320DEUX-ACREN
87.943HERBIN Laurent41BELESMESM2:44:142:44:335:30 10.94222315LEERNES
88.1420DE SLAGMEULDER Michel42BELOEH2:44:222:44:355:30 10.94223313HALLE
89.647COMPERNOLLE Patrick44BELFLAC2:44:312:44:595:30 10.91226308HERTSBERGE
90.2295COCHIN Pierre44BELTOTAL2:45:122:45:505:32 10.85228301
91.2020ROTSAERT Luc44BEL2:46:172:46:575:34 10.78231290
92.865SANTOCONO Jerome46BELACLO2:46:462:47:085:35 10.77233284MORLANWELZ
93.1654BRYNART Alain47BELACLO2:49:002:49:215:39 10.63242257HOUDENG-AIMERIES
94.2324BONSIGNORE Vincent48BEL2:49:002:49:225:39 10.63243256
95.2294GACZINSKI Thierry43BELTOTAL2:49:542:50:315:42 10.56246246
96.608ROSSI Stephane41BELROSCO TEAM2:50:532:50:565:42 10.53248236ROBERTVILLE
97.2296DAUCHOT Jean Luc44BELARAMIS2:50:312:51:025:43 10.52249238ESTINNES
98.2264DEFLOOR Philippe44BELBVAC2:54:452:55:215:51 10.27261194BERCHEM (ANTWERPEN)
99.2245DELCOURT Bernard46BEL2:54:562:55:295:51 10.26262192PÉRONNES-LEZ-ANTOING
100.2276COOPMANS Johan43BEL2:59:242:59:536:00 10.01272149HOELEDEN
101.2320SIMON Philippe45BELE.T.ENGHIEN3:04:053:04:176:09 9.77278111
102.584UBIETA Didier46BELFOUL PLAIS3:05:143:05:396:12 9.7028199VINALMONT
103.1912COLSON Pascal45BELACLO3:09:273:09:476:20 9.4828369MANAGE
DNF2222HALLEMANS Jean Pierre44BELBVLSCHEPDAAL
DNF2255HARDENNE Andre42BELLA HESTRE
DNF2230LECOCQ Philippe44BELVELAINESANTOING
DNF2258LEGRAND Jean-Pierre48BELWATERLOO
DNF: abandon; DSQ: disqualifié; Vitesse en km/h
Page: [1]